sensor_id;sensor_type;location;lat;lon;timestamp;temperature;humidity
13928;DHT22;7036;50.834;4.718;2022-07-18T00:00:26;25.40;53.30
13928;DHT22;7036;50.834;4.718;2022-07-18T00:02:53;25.40;53.30
13928;DHT22;7036;50.834;4.718;2022-07-18T00:05:20;25.40;53.30
13928;DHT22;7036;50.834;4.718;2022-07-18T00:07:47;25.40;53.30
13928;DHT22;7036;50.834;4.718;2022-07-18T00:10:14;25.30;53.20
13928;DHT22;7036;50.834;4.718;2022-07-18T00:12:40;25.30;53.30
13928;DHT22;7036;50.834;4.718;2022-07-18T00:15:08;25.30;53.30
13928;DHT22;7036;50.834;4.718;2022-07-18T00:17:34;25.40;53.30
13928;DHT22;7036;50.834;4.718;2022-07-18T00:20:02;25.30;53.30
13928;DHT22;7036;50.834;4.718;2022-07-18T00:22:29;25.30;53.30
13928;DHT22;7036;50.834;4.718;2022-07-18T00:24:56;25.30;53.30
13928;DHT22;7036;50.834;4.718;2022-07-18T00:27:23;25.30;53.30
13928;DHT22;7036;50.834;4.718;2022-07-18T00:29:50;25.30;53.20
13928;DHT22;7036;50.834;4.718;2022-07-18T00:32:17;25.30;53.30
13928;DHT22;7036;50.834;4.718;2022-07-18T00:34:44;25.30;53.30
13928;DHT22;7036;50.834;4.718;2022-07-18T00:37:11;25.30;53.30
13928;DHT22;7036;50.834;4.718;2022-07-18T00:39:38;25.30;53.30
13928;DHT22;7036;50.834;4.718;2022-07-18T00:42:04;25.30;53.30
13928;DHT22;7036;50.834;4.718;2022-07-18T00:44:31;25.30;53.30
13928;DHT22;7036;50.834;4.718;2022-07-18T00:47:00;25.30;53.30
13928;DHT22;7036;50.834;4.718;2022-07-18T00:49:25;25.30;53.40
13928;DHT22;7036;50.834;4.718;2022-07-18T00:51:52;25.30;53.30
13928;DHT22;7036;50.834;4.718;2022-07-18T00:54:20;25.30;53.30
13928;DHT22;7036;50.834;4.718;2022-07-18T00:56:47;25.30;53.30
13928;DHT22;7036;50.834;4.718;2022-07-18T00:59:13;25.20;53.30
13928;DHT22;7036;50.834;4.718;2022-07-18T01:01:40;25.20;53.30
13928;DHT22;7036;50.834;4.718;2022-07-18T01:04:12;25.20;53.40
13928;DHT22;7036;50.834;4.718;2022-07-18T01:06:37;25.20;53.30
13928;DHT22;7036;50.834;4.718;2022-07-18T01:09:04;25.20;53.30
13928;DHT22;7036;50.834;4.718;2022-07-18T01:11:32;25.20;53.30
13928;DHT22;7036;50.834;4.718;2022-07-18T01:13:58;25.20;53.30
13928;DHT22;7036;50.834;4.718;2022-07-18T01:16:25;25.20;53.30
13928;DHT22;7036;50.834;4.718;2022-07-18T01:18:52;25.20;53.30
13928;DHT22;7036;50.834;4.718;2022-07-18T01:21:19;25.20;53.30
13928;DHT22;7036;50.834;4.718;2022-07-18T01:23:46;25.20;53.30
13928;DHT22;7036;50.834;4.718;2022-07-18T01:26:13;25.20;53.30
13928;DHT22;7036;50.834;4.718;2022-07-18T01:28:40;25.20;53.30
13928;DHT22;7036;50.834;4.718;2022-07-18T01:31:07;25.20;53.20
13928;DHT22;7036;50.834;4.718;2022-07-18T01:33:34;25.20;53.20
13928;DHT22;7036;50.834;4.718;2022-07-18T01:36:01;25.20;53.20
13928;DHT22;7036;50.834;4.718;2022-07-18T01:38:28;25.20;53.30
13928;DHT22;7036;50.834;4.718;2022-07-18T01:40:54;25.20;53.30
13928;DHT22;7036;50.834;4.718;2022-07-18T01:43:22;25.20;53.30
13928;DHT22;7036;50.834;4.718;2022-07-18T01:45:49;25.20;53.30
13928;DHT22;7036;50.834;4.718;2022-07-18T01:48:16;25.20;54.10
13928;DHT22;7036;50.834;4.718;2022-07-18T01:50:43;25.20;53.30
13928;DHT22;7036;50.834;4.718;2022-07-18T01:53:10;25.20;53.30
13928;DHT22;7036;50.834;4.718;2022-07-18T01:55:37;25.20;53.30
13928;DHT22;7036;50.834;4.718;2022-07-18T01:58:04;25.10;53.20
13928;DHT22;7036;50.834;4.718;2022-07-18T02:00:31;25.10;53.20
13928;DHT22;7036;50.834;4.718;2022-07-18T02:02:57;25.20;53.30
13928;DHT22;7036;50.834;4.718;2022-07-18T02:05:24;25.20;53.20
13928;DHT22;7036;50.834;4.718;2022-07-18T02:07:51;25.10;53.20
13928;DHT22;7036;50.834;4.718;2022-07-18T02:10:19;25.10;53.10
13928;DHT22;7036;50.834;4.718;2022-07-18T02:12:45;25.10;53.20
13928;DHT22;7036;50.834;4.718;2022-07-18T02:15:12;25.10;53.20
13928;DHT22;7036;50.834;4.718;2022-07-18T02:17:39;25.10;53.20
13928;DHT22;7036;50.834;4.718;2022-07-18T02:20:07;25.10;53.20
13928;DHT22;7036;50.834;4.718;2022-07-18T02:22:33;25.10;53.20
13928;DHT22;7036;50.834;4.718;2022-07-18T02:24:59;25.10;53.20
13928;DHT22;7036;50.834;4.718;2022-07-18T02:27:26;25.10;53.20
13928;DHT22;7036;50.834;4.718;2022-07-18T02:29:53;25.10;53.20
13928;DHT22;7036;50.834;4.718;2022-07-18T02:32:20;25.10;53.20
13928;DHT22;7036;50.834;4.718;2022-07-18T02:34:47;25.10;53.20
13928;DHT22;7036;50.834;4.718;2022-07-18T02:37:14;25.10;53.20
13928;DHT22;7036;50.834;4.718;2022-07-18T02:39:41;25.10;53.20
13928;DHT22;7036;50.834;4.718;2022-07-18T02:42:08;25.00;53.20
13928;DHT22;7036;50.834;4.718;2022-07-18T02:44:34;25.10;53.20
13928;DHT22;7036;50.834;4.718;2022-07-18T02:47:02;25.10;53.20
13928;DHT22;7036;50.834;4.718;2022-07-18T02:49:28;25.00;53.20
13928;DHT22;7036;50.834;4.718;2022-07-18T02:51:59;25.00;53.20
13928;DHT22;7036;50.834;4.718;2022-07-18T02:54:25;25.00;53.10
13928;DHT22;7036;50.834;4.718;2022-07-18T02:56:52;25.00;53.20
13928;DHT22;7036;50.834;4.718;2022-07-18T02:59:19;25.00;53.10
13928;DHT22;7036;50.834;4.718;2022-07-18T03:01:45;25.00;53.10
13928;DHT22;7036;50.834;4.718;2022-07-18T03:04:12;25.00;53.10
13928;DHT22;7036;50.834;4.718;2022-07-18T03:06:39;25.00;53.10
13928;DHT22;7036;50.834;4.718;2022-07-18T03:09:06;25.00;53.20
13928;DHT22;7036;50.834;4.718;2022-07-18T03:11:33;25.00;53.10
13928;DHT22;7036;50.834;4.718;2022-07-18T03:14:02;25.00;53.20
13928;DHT22;7036;50.834;4.718;2022-07-18T03:16:28;25.00;53.10
13928;DHT22;7036;50.834;4.718;2022-07-18T03:18:55;25.00;53.10
13928;DHT22;7036;50.834;4.718;2022-07-18T03:21:22;25.00;53.10
13928;DHT22;7036;50.834;4.718;2022-07-18T03:23:50;25.00;53.10
13928;DHT22;7036;50.834;4.718;2022-07-18T03:26:17;25.00;53.20
13928;DHT22;7036;50.834;4.718;2022-07-18T03:28:44;25.00;53.00
13928;DHT22;7036;50.834;4.718;2022-07-18T03:31:11;25.00;53.00
13928;DHT22;7036;50.834;4.718;2022-07-18T03:33:38;25.00;53.10
13928;DHT22;7036;50.834;4.718;2022-07-18T03:36:05;25.00;53.10
13928;DHT22;7036;50.834;4.718;2022-07-18T03:38:31;24.90;53.00
13928;DHT22;7036;50.834;4.718;2022-07-18T03:40:59;25.00;53.00
13928;DHT22;7036;50.834;4.718;2022-07-18T03:43:26;25.00;53.00
13928;DHT22;7036;50.834;4.718;2022-07-18T03:45:53;25.00;53.00
13928;DHT22;7036;50.834;4.718;2022-07-18T03:48:20;24.90;53.00
13928;DHT22;7036;50.834;4.718;2022-07-18T03:50:47;24.90;53.00
13928;DHT22;7036;50.834;4.718;2022-07-18T03:53:14;25.00;53.00
13928;DHT22;7036;50.834;4.718;2022-07-18T03:55:41;24.90;52.90
13928;DHT22;7036;50.834;4.718;2022-07-18T03:58:08;25.00;52.90
13928;DHT22;7036;50.834;4.718;2022-07-18T04:00:35;25.00;53.00
13928;DHT22;7036;50.834;4.718;2022-07-18T04:03:02;25.00;52.90
13928;DHT22;7036;50.834;4.718;2022-07-18T04:05:28;24.90;52.90
13928;DHT22;7036;50.834;4.718;2022-07-18T04:07:56;25.00;53.10
13928;DHT22;7036;50.834;4.718;2022-07-18T04:10:23;24.90;52.90
13928;DHT22;7036;50.834;4.718;2022-07-18T04:12:53;25.00;52.90
13928;DHT22;7036;50.834;4.718;2022-07-18T04:15:20;24.90;52.90
13928;DHT22;7036;50.834;4.718;2022-07-18T04:17:46;24.90;52.90
13928;DHT22;7036;50.834;4.718;2022-07-18T04:20:13;24.90;52.90
13928;DHT22;7036;50.834;4.718;2022-07-18T04:22:47;24.90;52.90
13928;DHT22;7036;50.834;4.718;2022-07-18T04:25:13;24.90;53.70
13928;DHT22;7036;50.834;4.718;2022-07-18T04:27:40;24.90;52.90
13928;DHT22;7036;50.834;4.718;2022-07-18T04:30:07;24.90;52.90
13928;DHT22;7036;50.834;4.718;2022-07-18T04:32:34;24.90;53.00
13928;DHT22;7036;50.834;4.718;2022-07-18T04:35:01;24.90;52.90
13928;DHT22;7036;50.834;4.718;2022-07-18T04:37:31;24.90;52.90
13928;DHT22;7036;50.834;4.718;2022-07-18T04:40:01;24.90;52.90
13928;DHT22;7036;50.834;4.718;2022-07-18T04:42:27;24.90;52.90
13928;DHT22;7036;50.834;4.718;2022-07-18T04:44:54;24.90;52.80
13928;DHT22;7036;50.834;4.718;2022-07-18T04:47:21;24.90;52.80
13928;DHT22;7036;50.834;4.718;2022-07-18T04:49:48;24.90;52.90
13928;DHT22;7036;50.834;4.718;2022-07-18T04:52:15;24.90;52.80
13928;DHT22;7036;50.834;4.718;2022-07-18T04:54:42;24.90;52.90
13928;DHT22;7036;50.834;4.718;2022-07-18T04:57:09;24.90;52.90
13928;DHT22;7036;50.834;4.718;2022-07-18T04:59:36;24.90;52.90
13928;DHT22;7036;50.834;4.718;2022-07-18T05:02:02;24.90;52.90
13928;DHT22;7036;50.834;4.718;2022-07-18T05:04:30;24.90;52.90
13928;DHT22;7036;50.834;4.718;2022-07-18T05:06:56;24.90;52.80
13928;DHT22;7036;50.834;4.718;2022-07-18T05:09:23;24.90;52.80
13928;DHT22;7036;50.834;4.718;2022-07-18T05:11:51;24.90;52.90
13928;DHT22;7036;50.834;4.718;2022-07-18T05:14:19;24.90;52.90
13928;DHT22;7036;50.834;4.718;2022-07-18T05:16:45;24.90;52.90
13928;DHT22;7036;50.834;4.718;2022-07-18T05:19:12;24.90;52.90
13928;DHT22;7036;50.834;4.718;2022-07-18T05:21:39;24.90;52.90
13928;DHT22;7036;50.834;4.718;2022-07-18T05:24:06;24.90;52.90
13928;DHT22;7036;50.834;4.718;2022-07-18T05:26:33;24.90;52.90
13928;DHT22;7036;50.834;4.718;2022-07-18T05:29:00;24.90;52.90
13928;DHT22;7036;50.834;4.718;2022-07-18T05:31:28;24.90;53.00
13928;DHT22;7036;50.834;4.718;2022-07-18T05:33:54;24.90;52.90
13928;DHT22;7036;50.834;4.718;2022-07-18T05:36:21;24.90;52.90
13928;DHT22;7036;50.834;4.718;2022-07-18T05:38:48;24.90;52.90
13928;DHT22;7036;50.834;4.718;2022-07-18T05:41:15;24.90;52.90
13928;DHT22;7036;50.834;4.718;2022-07-18T05:43:42;24.90;52.90
13928;DHT22;7036;50.834;4.718;2022-07-18T05:46:09;24.90;52.90
13928;DHT22;7036;50.834;4.718;2022-07-18T05:48:36;24.90;53.00
13928;DHT22;7036;50.834;4.718;2022-07-18T05:51:03;24.90;52.90
13928;DHT22;7036;50.834;4.718;2022-07-18T05:53:31;24.90;52.90
13928;DHT22;7036;50.834;4.718;2022-07-18T05:55:57;25.00;52.90
13928;DHT22;7036;50.834;4.718;2022-07-18T05:58:24;25.00;52.90
13928;DHT22;7036;50.834;4.718;2022-07-18T06:00:51;25.00;52.90
13928;DHT22;7036;50.834;4.718;2022-07-18T06:03:18;25.10;52.90
13928;DHT22;7036;50.834;4.718;2022-07-18T06:05:45;25.10;52.80
13928;DHT22;7036;50.834;4.718;2022-07-18T06:08:12;25.10;52.70
13928;DHT22;7036;50.834;4.718;2022-07-18T06:10:39;25.20;52.60
13928;DHT22;7036;50.834;4.718;2022-07-18T06:13:06;25.20;52.60
13928;DHT22;7036;50.834;4.718;2022-07-18T06:15:32;25.20;52.60
13928;DHT22;7036;50.834;4.718;2022-07-18T06:17:59;25.20;52.60
13928;DHT22;7036;50.834;4.718;2022-07-18T06:20:26;25.20;52.50
13928;DHT22;7036;50.834;4.718;2022-07-18T06:22:53;25.30;52.50
13928;DHT22;7036;50.834;4.718;2022-07-18T06:25:20;25.30;52.50
13928;DHT22;7036;50.834;4.718;2022-07-18T06:27:47;25.30;52.50
13928;DHT22;7036;50.834;4.718;2022-07-18T06:30:14;25.30;52.50
13928;DHT22;7036;50.834;4.718;2022-07-18T06:32:41;25.30;52.50
13928;DHT22;7036;50.834;4.718;2022-07-18T06:35:08;25.40;52.60
13928;DHT22;7036;50.834;4.718;2022-07-18T06:37:35;25.40;52.60
13928;DHT22;7036;50.834;4.718;2022-07-18T06:40:02;25.40;52.60
13928;DHT22;7036;50.834;4.718;2022-07-18T06:42:28;25.40;52.50
13928;DHT22;7036;50.834;4.718;2022-07-18T06:44:55;25.50;52.50
13928;DHT22;7036;50.834;4.718;2022-07-18T06:47:22;25.50;52.50
13928;DHT22;7036;50.834;4.718;2022-07-18T06:49:49;25.50;52.60
13928;DHT22;7036;50.834;4.718;2022-07-18T06:52:16;25.50;52.60
13928;DHT22;7036;50.834;4.718;2022-07-18T06:54:43;25.50;52.50
13928;DHT22;7036;50.834;4.718;2022-07-18T06:57:10;25.60;52.50
13928;DHT22;7036;50.834;4.718;2022-07-18T06:59:38;25.60;52.50
13928;DHT22;7036;50.834;4.718;2022-07-18T07:02:05;25.60;52.60
13928;DHT22;7036;50.834;4.718;2022-07-18T07:04:31;25.60;52.50
13928;DHT22;7036;50.834;4.718;2022-07-18T07:06:58;25.60;52.60
13928;DHT22;7036;50.834;4.718;2022-07-18T07:09:25;25.60;52.60
13928;DHT22;7036;50.834;4.718;2022-07-18T07:11:53;25.60;52.40
13928;DHT22;7036;50.834;4.718;2022-07-18T07:14:20;25.60;52.50
13928;DHT22;7036;50.834;4.718;2022-07-18T07:16:47;25.60;52.60
13928;DHT22;7036;50.834;4.718;2022-07-18T07:19:14;25.70;52.60
13928;DHT22;7036;50.834;4.718;2022-07-18T07:21:42;25.70;52.30
13928;DHT22;7036;50.834;4.718;2022-07-18T07:24:09;25.70;52.30
13928;DHT22;7036;50.834;4.718;2022-07-18T07:26:35;25.70;52.20
13928;DHT22;7036;50.834;4.718;2022-07-18T07:29:02;25.70;52.00
13928;DHT22;7036;50.834;4.718;2022-07-18T07:31:29;25.70;51.80
13928;DHT22;7036;50.834;4.718;2022-07-18T07:33:56;25.70;51.80
13928;DHT22;7036;50.834;4.718;2022-07-18T07:36:23;25.70;51.70
13928;DHT22;7036;50.834;4.718;2022-07-18T07:38:50;25.70;51.80
13928;DHT22;7036;50.834;4.718;2022-07-18T07:41:17;25.70;51.70
13928;DHT22;7036;50.834;4.718;2022-07-18T07:43:44;25.70;51.40
13928;DHT22;7036;50.834;4.718;2022-07-18T07:46:11;25.70;51.30
13928;DHT22;7036;50.834;4.718;2022-07-18T07:48:38;25.70;51.10
13928;DHT22;7036;50.834;4.718;2022-07-18T07:51:05;25.80;51.10
13928;DHT22;7036;50.834;4.718;2022-07-18T07:53:32;25.80;51.10
13928;DHT22;7036;50.834;4.718;2022-07-18T07:55:59;25.80;51.10
13928;DHT22;7036;50.834;4.718;2022-07-18T07:58:26;25.80;51.00
13928;DHT22;7036;50.834;4.718;2022-07-18T08:00:53;25.80;51.10
13928;DHT22;7036;50.834;4.718;2022-07-18T08:03:20;25.80;51.00
13928;DHT22;7036;50.834;4.718;2022-07-18T08:05:48;25.80;51.00
13928;DHT22;7036;50.834;4.718;2022-07-18T08:08:14;25.80;51.00
13928;DHT22;7036;50.834;4.718;2022-07-18T08:10:40;25.80;50.90
13928;DHT22;7036;50.834;4.718;2022-07-18T08:13:07;25.80;50.90
13928;DHT22;7036;50.834;4.718;2022-07-18T08:15:34;25.80;51.00
13928;DHT22;7036;50.834;4.718;2022-07-18T08:18:01;25.80;51.00
13928;DHT22;7036;50.834;4.718;2022-07-18T08:20:28;25.80;51.00
13928;DHT22;7036;50.834;4.718;2022-07-18T08:23:02;25.80;50.90
13928;DHT22;7036;50.834;4.718;2022-07-18T08:25:29;25.90;51.00
13928;DHT22;7036;50.834;4.718;2022-07-18T08:27:55;25.90;50.90
13928;DHT22;7036;50.834;4.718;2022-07-18T08:30:22;25.90;51.00
13928;DHT22;7036;50.834;4.718;2022-07-18T08:32:49;25.90;51.00
13928;DHT22;7036;50.834;4.718;2022-07-18T08:35:16;25.90;51.10
13928;DHT22;7036;50.834;4.718;2022-07-18T08:37:43;25.90;51.00
13928;DHT22;7036;50.834;4.718;2022-07-18T08:40:10;25.90;50.90
13928;DHT22;7036;50.834;4.718;2022-07-18T08:42:37;25.90;51.10
13928;DHT22;7036;50.834;4.718;2022-07-18T08:45:04;25.90;51.20
13928;DHT22;7036;50.834;4.718;2022-07-18T08:47:31;25.90;51.10
13928;DHT22;7036;50.834;4.718;2022-07-18T08:49:58;25.90;50.90
13928;DHT22;7036;50.834;4.718;2022-07-18T08:52:26;25.90;50.90
13928;DHT22;7036;50.834;4.718;2022-07-18T08:54:52;25.90;50.80
13928;DHT22;7036;50.834;4.718;2022-07-18T08:57:18;25.90;50.80
13928;DHT22;7036;50.834;4.718;2022-07-18T08:59:45;25.90;50.90
13928;DHT22;7036;50.834;4.718;2022-07-18T09:02:12;25.90;50.90
13928;DHT22;7036;50.834;4.718;2022-07-18T09:04:43;25.90;51.00
13928;DHT22;7036;50.834;4.718;2022-07-18T09:07:10;26.00;51.20
13928;DHT22;7036;50.834;4.718;2022-07-18T09:09:37;25.90;51.00
13928;DHT22;7036;50.834;4.718;2022-07-18T09:12:07;25.90;51.00
13928;DHT22;7036;50.834;4.718;2022-07-18T09:14:35;25.90;51.00
13928;DHT22;7036;50.834;4.718;2022-07-18T09:17:04;26.00;51.00
13928;DHT22;7036;50.834;4.718;2022-07-18T09:19:28;26.00;51.00
13928;DHT22;7036;50.834;4.718;2022-07-18T09:21:58;26.00;51.10
13928;DHT22;7036;50.834;4.718;2022-07-18T09:24:21;26.00;51.20
13928;DHT22;7036;50.834;4.718;2022-07-18T09:26:48;26.00;51.20
13928;DHT22;7036;50.834;4.718;2022-07-18T09:29:16;26.00;51.10
13928;DHT22;7036;50.834;4.718;2022-07-18T09:31:49;26.00;51.20
13928;DHT22;7036;50.834;4.718;2022-07-18T09:34:15;26.00;51.20
13928;DHT22;7036;50.834;4.718;2022-07-18T09:36:55;26.00;51.20
13928;DHT22;7036;50.834;4.718;2022-07-18T09:39:21;26.00;51.30
13928;DHT22;7036;50.834;4.718;2022-07-18T09:41:48;26.00;51.30
13928;DHT22;7036;50.834;4.718;2022-07-18T09:44:18;26.00;51.20
13928;DHT22;7036;50.834;4.718;2022-07-18T09:47:03;26.00;51.40
13928;DHT22;7036;50.834;4.718;2022-07-18T09:49:30;26.00;52.40
13928;DHT22;7036;50.834;4.718;2022-07-18T09:52:05;26.10;52.50
13928;DHT22;7036;50.834;4.718;2022-07-18T09:54:38;26.10;52.40
13928;DHT22;7036;50.834;4.718;2022-07-18T09:57:05;26.10;52.30
13928;DHT22;7036;50.834;4.718;2022-07-18T09:59:32;26.10;52.20
13928;DHT22;7036;50.834;4.718;2022-07-18T10:01:58;26.10;52.10
13928;DHT22;7036;50.834;4.718;2022-07-18T10:04:25;26.10;52.20
13928;DHT22;7036;50.834;4.718;2022-07-18T10:06:52;26.10;52.20
13928;DHT22;7036;50.834;4.718;2022-07-18T10:09:20;26.10;52.30
13928;DHT22;7036;50.834;4.718;2022-07-18T10:11:46;26.10;52.10
13928;DHT22;7036;50.834;4.718;2022-07-18T10:14:13;26.10;52.10
13928;DHT22;7036;50.834;4.718;2022-07-18T10:16:41;26.10;52.10
13928;DHT22;7036;50.834;4.718;2022-07-18T10:19:07;26.10;52.10
13928;DHT22;7036;50.834;4.718;2022-07-18T10:21:34;26.10;52.10
13928;DHT22;7036;50.834;4.718;2022-07-18T10:24:01;26.10;52.10
13928;DHT22;7036;50.834;4.718;2022-07-18T10:26:28;26.10;51.80
13928;DHT22;7036;50.834;4.718;2022-07-18T10:31:26;26.10;51.60
13928;DHT22;7036;50.834;4.718;2022-07-18T10:33:54;26.10;51.80
13928;DHT22;7036;50.834;4.718;2022-07-18T10:36:19;26.10;51.80
13928;DHT22;7036;50.834;4.718;2022-07-18T10:39:13;26.10;51.80
13928;DHT22;7036;50.834;4.718;2022-07-18T10:57:30;26.10;52.20
13928;DHT22;7036;50.834;4.718;2022-07-18T11:00:06;26.10;51.70
13928;DHT22;7036;50.834;4.718;2022-07-18T11:02:38;26.10;51.80
13928;DHT22;7036;50.834;4.718;2022-07-18T11:05:02;26.10;51.60
13928;DHT22;7036;50.834;4.718;2022-07-18T11:07:29;26.10;51.70
13928;DHT22;7036;50.834;4.718;2022-07-18T11:09:56;26.10;51.80
13928;DHT22;7036;50.834;4.718;2022-07-18T11:12:24;26.20;51.80
13928;DHT22;7036;50.834;4.718;2022-07-18T11:15:09;26.20;51.80
13928;DHT22;7036;50.834;4.718;2022-07-18T11:20:36;26.20;52.00
13928;DHT22;7036;50.834;4.718;2022-07-18T11:23:03;26.20;52.00
13928;DHT22;7036;50.834;4.718;2022-07-18T11:25:29;26.20;52.00
13928;DHT22;7036;50.834;4.718;2022-07-18T11:27:56;26.20;52.20
13928;DHT22;7036;50.834;4.718;2022-07-18T11:30:23;26.20;52.30
13928;DHT22;7036;50.834;4.718;2022-07-18T11:32:49;26.20;52.10
13928;DHT22;7036;50.834;4.718;2022-07-18T11:35:23;26.20;52.20
13928;DHT22;7036;50.834;4.718;2022-07-18T11:37:50;26.30;53.40
13928;DHT22;7036;50.834;4.718;2022-07-18T11:40:16;26.30;53.20
13928;DHT22;7036;50.834;4.718;2022-07-18T11:42:43;26.30;53.70
13928;DHT22;7036;50.834;4.718;2022-07-18T11:45:12;26.30;54.80
13928;DHT22;7036;50.834;4.718;2022-07-18T11:47:49;26.30;54.00
13928;DHT22;7036;50.834;4.718;2022-07-18T11:50:14;26.40;53.60
13928;DHT22;7036;50.834;4.718;2022-07-18T11:52:42;26.40;53.10
13928;DHT22;7036;50.834;4.718;2022-07-18T11:55:08;26.30;52.80
13928;DHT22;7036;50.834;4.718;2022-07-18T11:57:35;26.30;52.90
13928;DHT22;7036;50.834;4.718;2022-07-18T12:00:13;26.30;52.90
13928;DHT22;7036;50.834;4.718;2022-07-18T12:05:36;26.30;52.40
13928;DHT22;7036;50.834;4.718;2022-07-18T12:11:10;26.30;51.90
13928;DHT22;7036;50.834;4.718;2022-07-18T12:13:55;26.30;51.70
13928;DHT22;7036;50.834;4.718;2022-07-18T12:16:28;26.30;53.40
13928;DHT22;7036;50.834;4.718;2022-07-18T12:24:37;26.40;52.50
13928;DHT22;7036;50.834;4.718;2022-07-18T12:27:13;26.40;52.30
13928;DHT22;7036;50.834;4.718;2022-07-18T12:29:52;26.40;52.40
13928;DHT22;7036;50.834;4.718;2022-07-18T12:32:14;26.40;52.40
13928;DHT22;7036;50.834;4.718;2022-07-18T12:34:30;26.40;52.40
13928;DHT22;7036;50.834;4.718;2022-07-18T12:36:57;26.40;52.70
13928;DHT22;7036;50.834;4.718;2022-07-18T12:39:30;26.40;52.60
13928;DHT22;7036;50.834;4.718;2022-07-18T12:41:56;26.40;52.40
13928;DHT22;7036;50.834;4.718;2022-07-18T12:44:24;26.40;51.90
13928;DHT22;7036;50.834;4.718;2022-07-18T12:46:50;26.40;51.60
13928;DHT22;7036;50.834;4.718;2022-07-18T12:49:17;26.40;51.60
13928;DHT22;7036;50.834;4.718;2022-07-18T12:51:44;26.40;51.10
13928;DHT22;7036;50.834;4.718;2022-07-18T12:54:11;26.40;51.10
13928;DHT22;7036;50.834;4.718;2022-07-18T12:56:37;26.40;50.70
13928;DHT22;7036;50.834;4.718;2022-07-18T12:59:04;26.40;50.30
13928;DHT22;7036;50.834;4.718;2022-07-18T13:01:38;26.40;50.50
13928;DHT22;7036;50.834;4.718;2022-07-18T13:04:05;26.40;50.30
13928;DHT22;7036;50.834;4.718;2022-07-18T13:06:32;26.40;50.20
13928;DHT22;7036;50.834;4.718;2022-07-18T13:08:59;26.40;49.90
13928;DHT22;7036;50.834;4.718;2022-07-18T13:11:26;26.40;49.40
13928;DHT22;7036;50.834;4.718;2022-07-18T13:13:53;26.50;49.60
13928;DHT22;7036;50.834;4.718;2022-07-18T13:16:20;26.50;49.50
13928;DHT22;7036;50.834;4.718;2022-07-18T13:18:47;26.40;49.50
13928;DHT22;7036;50.834;4.718;2022-07-18T13:21:13;26.50;49.30
13928;DHT22;7036;50.834;4.718;2022-07-18T13:23:40;26.50;49.50
13928;DHT22;7036;50.834;4.718;2022-07-18T13:26:07;26.50;49.60
13928;DHT22;7036;50.834;4.718;2022-07-18T13:28:34;26.50;49.30
13928;DHT22;7036;50.834;4.718;2022-07-18T13:31:01;26.50;49.50
13928;DHT22;7036;50.834;4.718;2022-07-18T13:33:28;26.50;48.80
13928;DHT22;7036;50.834;4.718;2022-07-18T13:35:55;26.50;48.90
13928;DHT22;7036;50.834;4.718;2022-07-18T13:38:23;26.50;49.00
13928;DHT22;7036;50.834;4.718;2022-07-18T13:40:49;26.50;48.90
13928;DHT22;7036;50.834;4.718;2022-07-18T13:43:16;26.50;48.90
13928;DHT22;7036;50.834;4.718;2022-07-18T13:45:43;26.50;48.60
13928;DHT22;7036;50.834;4.718;2022-07-18T13:48:10;26.50;48.70
13928;DHT22;7036;50.834;4.718;2022-07-18T13:50:37;26.50;48.70
13928;DHT22;7036;50.834;4.718;2022-07-18T13:53:04;26.50;48.70
13928;DHT22;7036;50.834;4.718;2022-07-18T13:55:31;26.50;48.70
13928;DHT22;7036;50.834;4.718;2022-07-18T13:57:58;26.50;48.60
13928;DHT22;7036;50.834;4.718;2022-07-18T14:00:25;26.50;48.50
13928;DHT22;7036;50.834;4.718;2022-07-18T14:02:52;26.60;48.20
13928;DHT22;7036;50.834;4.718;2022-07-18T14:05:19;26.60;48.10
13928;DHT22;7036;50.834;4.718;2022-07-18T14:07:46;26.60;48.20
13928;DHT22;7036;50.834;4.718;2022-07-18T14:10:15;26.60;47.90
13928;DHT22;7036;50.834;4.718;2022-07-18T14:12:42;26.60;48.10
13928;DHT22;7036;50.834;4.718;2022-07-18T14:15:09;26.60;48.20
13928;DHT22;7036;50.834;4.718;2022-07-18T14:17:35;26.60;48.60
13928;DHT22;7036;50.834;4.718;2022-07-18T14:20:02;26.60;48.70
13928;DHT22;7036;50.834;4.718;2022-07-18T14:22:29;26.60;48.80
13928;DHT22;7036;50.834;4.718;2022-07-18T14:24:56;26.60;49.00
13928;DHT22;7036;50.834;4.718;2022-07-18T14:27:23;26.70;49.00
13928;DHT22;7036;50.834;4.718;2022-07-18T14:29:50;26.70;49.00
13928;DHT22;7036;50.834;4.718;2022-07-18T14:32:17;26.70;49.10
13928;DHT22;7036;50.834;4.718;2022-07-18T14:34:44;26.70;49.20
13928;DHT22;7036;50.834;4.718;2022-07-18T14:37:11;26.70;49.30
13928;DHT22;7036;50.834;4.718;2022-07-18T14:39:38;26.70;49.30
13928;DHT22;7036;50.834;4.718;2022-07-18T14:42:05;26.70;49.30
13928;DHT22;7036;50.834;4.718;2022-07-18T14:44:32;26.70;49.40
13928;DHT22;7036;50.834;4.718;2022-07-18T14:46:58;26.80;49.30
13928;DHT22;7036;50.834;4.718;2022-07-18T14:49:25;26.80;49.30
13928;DHT22;7036;50.834;4.718;2022-07-18T14:51:52;26.80;49.10
13928;DHT22;7036;50.834;4.718;2022-07-18T14:54:19;26.80;49.00
13928;DHT22;7036;50.834;4.718;2022-07-18T14:56:46;26.80;48.90
13928;DHT22;7036;50.834;4.718;2022-07-18T14:59:13;26.80;48.60
13928;DHT22;7036;50.834;4.718;2022-07-18T15:01:40;26.90;48.70
13928;DHT22;7036;50.834;4.718;2022-07-18T15:04:07;26.90;48.80
13928;DHT22;7036;50.834;4.718;2022-07-18T15:06:34;26.90;48.80
13928;DHT22;7036;50.834;4.718;2022-07-18T15:09:01;26.90;48.50
13928;DHT22;7036;50.834;4.718;2022-07-18T15:11:28;26.90;48.40
13928;DHT22;7036;50.834;4.718;2022-07-18T15:13:55;26.90;49.00
13928;DHT22;7036;50.834;4.718;2022-07-18T15:16:22;27.00;49.20
13928;DHT22;7036;50.834;4.718;2022-07-18T15:18:49;27.00;49.20
13928;DHT22;7036;50.834;4.718;2022-07-18T15:21:16;27.00;49.10
13928;DHT22;7036;50.834;4.718;2022-07-18T15:23:45;27.00;49.10
13928;DHT22;7036;50.834;4.718;2022-07-18T15:26:11;27.00;49.00
13928;DHT22;7036;50.834;4.718;2022-07-18T15:28:38;27.10;48.90
13928;DHT22;7036;50.834;4.718;2022-07-18T15:31:05;27.10;48.70
13928;DHT22;7036;50.834;4.718;2022-07-18T15:33:32;27.10;48.80
13928;DHT22;7036;50.834;4.718;2022-07-18T15:35:59;27.10;48.80
13928;DHT22;7036;50.834;4.718;2022-07-18T15:38:26;27.10;48.70
13928;DHT22;7036;50.834;4.718;2022-07-18T15:40:53;27.10;48.70
13928;DHT22;7036;50.834;4.718;2022-07-18T15:43:20;27.10;48.70
13928;DHT22;7036;50.834;4.718;2022-07-18T15:45:47;27.10;48.60
13928;DHT22;7036;50.834;4.718;2022-07-18T15:48:14;27.10;48.50
13928;DHT22;7036;50.834;4.718;2022-07-18T15:50:41;27.20;48.50
13928;DHT22;7036;50.834;4.718;2022-07-18T15:53:08;27.20;48.50
13928;DHT22;7036;50.834;4.718;2022-07-18T15:55:34;27.20;48.30
13928;DHT22;7036;50.834;4.718;2022-07-18T15:58:02;27.20;48.30
13928;DHT22;7036;50.834;4.718;2022-07-18T16:00:29;27.20;48.50
13928;DHT22;7036;50.834;4.718;2022-07-18T16:02:56;27.20;48.70
13928;DHT22;7036;50.834;4.718;2022-07-18T16:05:23;27.20;48.80
13928;DHT22;7036;50.834;4.718;2022-07-18T16:07:50;27.20;48.80
13928;DHT22;7036;50.834;4.718;2022-07-18T16:10:17;27.20;48.90
13928;DHT22;7036;50.834;4.718;2022-07-18T16:12:43;27.20;48.90
13928;DHT22;7036;50.834;4.718;2022-07-18T16:15:10;27.20;49.00
13928;DHT22;7036;50.834;4.718;2022-07-18T16:17:37;27.20;49.00